createdAt,value
2023-07-27T00:02:13.251Z,14.60
2023-07-27T00:04:40.340Z,14.60
2023-07-27T00:07:07.579Z,14.60
2023-07-27T00:09:34.662Z,14.60
2023-07-27T00:12:01.693Z,14.50
2023-07-27T00:14:28.788Z,14.50
2023-07-27T00:16:55.880Z,14.50
2023-07-27T00:19:23.075Z,14.50
2023-07-27T00:21:50.258Z,14.40
2023-07-27T00:24:17.441Z,14.30
2023-07-27T00:26:44.514Z,14.20
2023-07-27T00:29:11.596Z,14.20
2023-07-27T00:31:38.652Z,14.00
2023-07-27T00:34:05.781Z,14.00
2023-07-27T00:36:33.293Z,14.00
2023-07-27T00:39:00.723Z,14.00
2023-07-27T00:41:27.893Z,13.90
2023-07-27T00:43:54.978Z,13.80
2023-07-27T00:46:22.259Z,13.80
2023-07-27T00:48:50.326Z,13.80
2023-07-27T00:51:17.477Z,13.80
2023-07-27T00:53:44.975Z,13.80
2023-07-27T00:56:12.164Z,13.80
2023-07-27T00:58:39.677Z,13.80
2023-07-27T01:01:07.412Z,13.80
2023-07-27T01:03:36.374Z,13.80
2023-07-27T01:06:03.772Z,13.70
2023-07-27T01:08:32.236Z,13.70
2023-07-27T01:11:15.197Z,13.70
2023-07-27T01:13:52.500Z,13.60
2023-07-27T01:16:46.708Z,13.60
2023-07-27T01:19:59.299Z,13.50
2023-07-27T01:22:32.407Z,13.40
2023-07-27T01:25:11.762Z,13.40
2023-07-27T01:27:47.388Z,13.30
2023-07-27T01:30:29.696Z,13.30
2023-07-27T01:33:02.311Z,13.20
2023-07-27T01:35:54.578Z,13.20
2023-07-27T01:38:23.510Z,13.20
2023-07-27T01:40:52.082Z,13.20
2023-07-27T01:43:19.662Z,13.10
2023-07-27T01:45:47.589Z,13.10
2023-07-27T01:48:19.183Z,13.10
2023-07-27T01:50:48.377Z,13.00
2023-07-27T01:53:18.838Z,13.00
2023-07-27T01:55:47.134Z,12.90
2023-07-27T01:58:16.823Z,12.90
2023-07-27T02:00:44.350Z,12.90
2023-07-27T02:03:12.466Z,12.90
2023-07-27T02:05:39.571Z,12.90
2023-07-27T02:08:07.479Z,12.80
2023-07-27T02:10:35.884Z,12.90
2023-07-27T02:13:30.961Z,12.80
2023-07-27T02:16:29.914Z,12.80
2023-07-27T02:18:59.938Z,12.80
2023-07-27T02:21:29.142Z,12.80
2023-07-27T02:23:56.911Z,12.90
2023-07-27T02:26:24.012Z,13.00
2023-07-27T02:28:51.312Z,13.00
2023-07-27T02:31:19.064Z,13.00
2023-07-27T02:33:46.504Z,13.00
2023-07-27T02:36:13.691Z,13.10
2023-07-27T02:38:40.887Z,13.00
2023-07-27T02:41:11.737Z,13.10
2023-07-27T02:43:40.814Z,13.10
2023-07-27T02:46:09.757Z,13.10
2023-07-27T02:48:37.347Z,13.20
2023-07-27T02:51:06.508Z,13.20
2023-07-27T02:53:33.644Z,13.20
2023-07-27T02:56:05.184Z,13.10
2023-07-27T02:58:41.275Z,13.10
2023-07-27T03:01:08.352Z,13.10
2023-07-27T03:03:35.687Z,13.00
2023-07-27T03:06:11.237Z,13.00
2023-07-27T03:08:41.840Z,12.90
2023-07-27T03:11:09.097Z,12.90
2023-07-27T03:13:38.537Z,12.90
2023-07-27T03:16:06.382Z,12.90
2023-07-27T03:18:34.971Z,12.80
2023-07-27T03:21:06.057Z,12.90
2023-07-27T03:23:34.655Z,12.90
2023-07-27T03:26:02.123Z,12.80
2023-07-27T03:28:29.256Z,12.90
2023-07-27T03:30:56.373Z,12.90
2023-07-27T03:33:23.548Z,12.90
2023-07-27T03:35:50.666Z,12.90
2023-07-27T03:38:17.774Z,12.90
2023-07-27T03:40:44.922Z,12.90
2023-07-27T03:43:12.328Z,12.90
2023-07-27T03:45:41.692Z,12.90
2023-07-27T03:48:08.826Z,12.90
2023-07-27T03:50:35.932Z,13.00
2023-07-27T03:53:03.005Z,13.00
2023-07-27T03:55:30.728Z,12.90
2023-07-27T03:57:58.402Z,13.00
2023-07-27T04:00:25.802Z,13.10
2023-07-27T04:02:53.169Z,13.10
2023-07-27T04:05:20.438Z,13.10
2023-07-27T04:07:53.149Z,13.10
2023-07-27T04:10:20.660Z,13.20
2023-07-27T04:12:48.443Z,13.30
2023-07-27T04:15:15.681Z,13.30
2023-07-27T04:17:42.997Z,13.40
2023-07-27T04:20:11.352Z,13.50
2023-07-27T04:22:38.516Z,13.40
2023-07-27T04:25:06.737Z,13.50
2023-07-27T04:27:34.175Z,13.70
2023-07-27T04:30:01.436Z,13.70
2023-07-27T04:32:32.717Z,13.80
2023-07-27T04:34:59.830Z,13.80
2023-07-27T04:37:26.917Z,13.80
2023-07-27T04:39:54.048Z,13.90
2023-07-27T04:42:21.107Z,14.00
2023-07-27T04:44:48.200Z,14.00
2023-07-27T04:47:15.309Z,14.10
2023-07-27T04:49:42.422Z,14.10
2023-07-27T04:52:09.599Z,14.20
2023-07-27T04:54:36.758Z,14.30
2023-07-27T04:57:03.867Z,14.40
2023-07-27T04:59:30.976Z,14.40
2023-07-27T05:01:58.151Z,14.60
2023-07-27T05:04:25.346Z,14.60
2023-07-27T05:06:52.442Z,14.80
2023-07-27T05:09:19.569Z,15.00
2023-07-27T05:11:46.653Z,15.20
2023-07-27T05:14:13.747Z,15.20
2023-07-27T05:16:41.276Z,15.40
2023-07-27T05:19:08.419Z,15.50
2023-07-27T05:21:35.652Z,15.60
2023-07-27T05:24:02.670Z,15.50
2023-07-27T05:26:29.795Z,15.70
2023-07-27T05:28:59.933Z,15.70
2023-07-27T05:31:27.608Z,15.80
2023-07-27T05:33:54.705Z,15.90
2023-07-27T05:36:21.804Z,16.10
2023-07-27T05:38:48.870Z,16.30
2023-07-27T05:41:15.984Z,16.40
2023-07-27T05:43:43.040Z,16.60
2023-07-27T05:46:10.321Z,16.80
2023-07-27T05:48:37.500Z,16.90
2023-07-27T05:51:04.657Z,17.10
2023-07-27T05:53:31.742Z,17.40
2023-07-27T05:55:58.858Z,17.60
2023-07-27T05:58:26.561Z,17.60
2023-07-27T06:01:04.819Z,17.80
2023-07-27T06:03:33.020Z,17.90
2023-07-27T06:06:00.420Z,18.20
2023-07-27T06:08:28.724Z,18.10
2023-07-27T06:11:05.652Z,18.10
2023-07-27T06:13:33.909Z,18.30
2023-07-27T06:16:01.968Z,18.40
2023-07-27T06:18:29.308Z,18.70
2023-07-27T06:20:56.622Z,18.90
2023-07-27T06:23:23.806Z,19.20
2023-07-27T06:25:51.099Z,19.30
2023-07-27T06:28:20.119Z,19.40
2023-07-27T06:30:47.251Z,19.50
2023-07-27T06:33:15.419Z,19.20
2023-07-27T06:35:43.329Z,19.00
2023-07-27T06:38:10.635Z,19.10
2023-07-27T06:40:37.907Z,19.00
2023-07-27T06:43:05.302Z,19.10
2023-07-27T06:45:32.548Z,19.10
2023-07-27T06:47:59.684Z,19.20
2023-07-27T06:50:27.335Z,19.30
2023-07-27T06:52:54.453Z,19.40
2023-07-27T06:55:21.622Z,19.60
2023-07-27T06:57:48.759Z,19.50
2023-07-27T07:00:16.322Z,19.30
2023-07-27T07:02:43.554Z,19.50
2023-07-27T07:05:11.961Z,19.50
2023-07-27T07:07:40.160Z,19.80
2023-07-27T07:10:09.299Z,19.50
2023-07-27T07:12:36.448Z,19.90
2023-07-27T07:15:03.991Z,20.00
2023-07-27T07:17:31.490Z,20.10
2023-07-27T07:19:59.044Z,20.50
2023-07-27T07:22:26.124Z,20.50
2023-07-27T07:24:53.898Z,20.80
2023-07-27T07:27:21.032Z,21.30
2023-07-27T07:29:48.260Z,21.80
2023-07-27T07:32:15.312Z,21.20
2023-07-27T07:34:42.396Z,21.00
2023-07-27T07:37:09.475Z,21.50
2023-07-27T07:39:36.630Z,21.60
2023-07-27T07:42:04.235Z,21.80
2023-07-27T07:44:31.461Z,22.00
2023-07-27T07:46:58.648Z,22.00
2023-07-27T07:49:27.512Z,22.30
2023-07-27T07:51:54.842Z,22.50
2023-07-27T07:54:22.059Z,22.30
2023-07-27T07:56:49.521Z,22.00
2023-07-27T07:59:16.835Z,21.40
2023-07-27T08:01:43.926Z,21.10
2023-07-27T08:04:11.045Z,21.10
2023-07-27T08:06:38.459Z,21.40
2023-07-27T08:09:07.136Z,21.70
2023-07-27T08:11:34.738Z,22.00
2023-07-27T08:14:03.750Z,22.30
2023-07-27T08:16:31.512Z,22.30
2023-07-27T08:18:58.889Z,22.40
2023-07-27T08:21:27.221Z,22.10
2023-07-27T08:23:54.319Z,22.40
2023-07-27T08:26:21.543Z,22.90
2023-07-27T08:28:49.084Z,22.50
2023-07-27T08:31:16.286Z,22.30
2023-07-27T08:33:43.504Z,22.80
2023-07-27T08:36:10.904Z,22.40
2023-07-27T08:38:38.065Z,22.80
2023-07-27T08:41:05.227Z,22.80
2023-07-27T08:43:32.389Z,22.90
2023-07-27T08:46:00.751Z,22.80
2023-07-27T08:48:29.898Z,22.50
2023-07-27T08:51:00.512Z,22.50
2023-07-27T08:53:27.973Z,23.30
2023-07-27T08:55:55.517Z,22.70
2023-07-27T08:58:22.694Z,22.40
2023-07-27T09:00:50.128Z,22.20
2023-07-27T09:03:17.315Z,22.70
2023-07-27T09:05:56.704Z,23.10
2023-07-27T09:08:24.017Z,23.50
2023-07-27T09:10:51.258Z,23.50
2023-07-27T09:13:18.637Z,23.30
2023-07-27T09:15:46.553Z,23.30
2023-07-27T09:18:15.324Z,23.00
2023-07-27T09:20:43.903Z,23.10
2023-07-27T09:23:20.876Z,23.70
2023-07-27T09:25:57.386Z,23.60
2023-07-27T09:28:30.417Z,23.60
2023-07-27T09:31:03.636Z,23.70
2023-07-27T09:33:31.419Z,23.50
2023-07-27T09:35:58.629Z,23.60
2023-07-27T09:38:28.846Z,23.50
2023-07-27T09:40:56.557Z,23.10
2023-07-27T09:43:27.014Z,22.70
2023-07-27T09:45:59.506Z,22.50
2023-07-27T09:48:30.967Z,23.00
2023-07-27T09:51:08.936Z,22.50
2023-07-27T09:53:38.329Z,22.20
2023-07-27T09:56:08.426Z,21.80
2023-07-27T09:58:40.773Z,21.60
2023-07-27T10:01:09.535Z,21.50
2023-07-27T10:03:38.038Z,21.50
2023-07-27T10:06:07.236Z,21.40
2023-07-27T10:08:35.039Z,21.40
2023-07-27T10:11:03.545Z,21.40
2023-07-27T10:13:30.645Z,21.30
2023-07-27T10:15:58.469Z,21.30
2023-07-27T10:18:28.695Z,21.10
2023-07-27T10:20:58.219Z,20.90
2023-07-27T10:23:30.375Z,20.70
2023-07-27T10:25:57.703Z,20.70
2023-07-27T10:28:49.975Z,20.70
2023-07-27T10:31:27.169Z,20.80
2023-07-27T10:34:14.589Z,20.80
2023-07-27T10:37:00.389Z,20.90
2023-07-27T10:39:32.470Z,21.10
2023-07-27T10:42:11.658Z,21.60
2023-07-27T10:45:00.205Z,21.80
2023-07-27T10:47:38.753Z,22.10
2023-07-27T10:50:07.166Z,22.20
2023-07-27T10:52:40.190Z,22.20
2023-07-27T10:55:08.752Z,22.70
2023-07-27T10:57:38.801Z,22.80
2023-07-27T11:00:07.260Z,23.00
2023-07-27T11:02:37.359Z,23.30
2023-07-27T11:05:07.903Z,23.80
2023-07-27T11:07:45.664Z,23.70
2023-07-27T11:10:17.276Z,23.80
2023-07-27T11:12:58.711Z,23.90
2023-07-27T11:15:30.719Z,24.20
2023-07-27T11:18:02.912Z,24.50
2023-07-27T11:20:30.689Z,24.70
2023-07-27T11:22:59.559Z,24.50
2023-07-27T11:25:36.024Z,24.10
2023-07-27T11:28:05.052Z,24.10
2023-07-27T11:30:37.375Z,23.50
2023-07-27T11:33:06.545Z,23.20
2023-07-27T11:35:34.299Z,22.90
2023-07-27T11:38:02.199Z,22.70
2023-07-27T11:40:30.063Z,22.50
2023-07-27T11:42:57.369Z,22.40
2023-07-27T11:45:25.894Z,22.90
2023-07-27T11:47:54.421Z,22.70
2023-07-27T11:50:22.633Z,22.80
2023-07-27T11:53:02.439Z,22.60
2023-07-27T11:55:37.628Z,22.50
2023-07-27T11:58:11.811Z,22.50
2023-07-27T12:00:39.017Z,22.60
2023-07-27T12:03:20.912Z,21.70
2023-07-27T12:05:55.202Z,21.60
2023-07-27T12:11:04.091Z,21.30
2023-07-27T12:23:38.794Z,21.40
2023-07-27T12:33:36.151Z,21.40
2023-07-27T12:36:03.408Z,21.20
2023-07-27T12:41:00.481Z,21.00
2023-07-27T12:43:27.577Z,20.80
2023-07-27T12:45:54.648Z,20.60
2023-07-27T12:48:21.736Z,20.60
2023-07-27T12:50:48.813Z,20.60
2023-07-27T12:53:15.893Z,20.50
2023-07-27T12:55:43.126Z,20.60
2023-07-27T12:58:10.279Z,20.40
2023-07-27T13:00:37.332Z,20.40
2023-07-27T13:03:04.573Z,20.30
2023-07-27T13:05:31.921Z,20.20
2023-07-27T13:07:59.116Z,20.00
2023-07-27T13:10:26.276Z,19.80
2023-07-27T13:12:53.484Z,19.90
2023-07-27T13:15:21.307Z,19.90
2023-07-27T13:17:48.923Z,19.90
2023-07-27T13:20:16.098Z,19.90
2023-07-27T13:22:43.345Z,20.10
2023-07-27T13:25:10.698Z,20.20
2023-07-27T13:27:37.842Z,20.20
2023-07-27T13:30:06.142Z,20.20
2023-07-27T13:32:33.821Z,20.20
2023-07-27T13:35:01.533Z,20.40
2023-07-27T13:37:30.854Z,20.20
2023-07-27T13:39:58.276Z,20.20
2023-07-27T13:42:25.843Z,20.30
2023-07-27T13:44:53.577Z,20.60
2023-07-27T13:47:20.806Z,20.80
2023-07-27T13:49:47.998Z,20.80
2023-07-27T13:52:15.702Z,20.90
2023-07-27T13:54:43.440Z,21.00
2023-07-27T13:57:10.557Z,21.10
2023-07-27T13:59:37.681Z,21.10
2023-07-27T14:02:05.588Z,21.20
2023-07-27T14:04:32.989Z,21.30
2023-07-27T14:07:00.062Z,21.30
2023-07-27T14:09:28.154Z,21.60
2023-07-27T14:11:55.198Z,21.60
2023-07-27T14:14:22.285Z,21.80
2023-07-27T14:16:49.349Z,21.80
2023-07-27T14:19:16.456Z,21.20
2023-07-27T14:21:43.539Z,21.20
2023-07-27T14:24:10.597Z,20.90
2023-07-27T14:26:37.850Z,20.40
2023-07-27T14:29:05.196Z,20.20
2023-07-27T14:31:33.287Z,19.80
2023-07-27T14:34:04.241Z,19.40
2023-07-27T14:36:31.408Z,19.10
2023-07-27T14:41:28.868Z,18.60
2023-07-27T14:43:55.974Z,18.60
2023-07-27T14:46:23.177Z,19.00
2023-07-27T14:48:50.381Z,19.20
2023-07-27T14:51:17.711Z,19.40
2023-07-27T14:53:46.478Z,19.80
2023-07-27T14:56:13.731Z,19.90
2023-07-27T15:01:10.860Z,19.90
2023-07-27T15:03:40.736Z,19.70
2023-07-27T15:06:18.566Z,19.80
2023-07-27T15:08:46.004Z,20.20
2023-07-27T15:13:43.526Z,20.40
2023-07-27T15:16:10.726Z,20.50
2023-07-27T15:18:38.368Z,20.70
2023-07-27T15:21:05.505Z,20.50
2023-07-27T15:23:32.997Z,20.50
2023-07-27T15:26:05.840Z,20.30
2023-07-27T15:28:34.393Z,20.40
2023-07-27T15:31:01.669Z,20.10
2023-07-27T15:33:30.111Z,20.00
2023-07-27T15:35:57.842Z,19.90
2023-07-27T15:38:25.237Z,19.80
2023-07-27T15:40:58.375Z,19.90
2023-07-27T15:43:25.934Z,20.10
2023-07-27T15:45:53.160Z,20.10
2023-07-27T15:48:22.908Z,19.90
2023-07-27T15:50:50.102Z,20.00
2023-07-27T15:53:17.378Z,20.10
2023-07-27T15:55:44.621Z,19.90
2023-07-27T15:58:11.959Z,19.90
2023-07-27T16:00:40.542Z,19.70
2023-07-27T16:03:08.343Z,19.70
2023-07-27T16:05:39.836Z,19.30
2023-07-27T16:08:07.903Z,19.20
2023-07-27T16:10:35.015Z,19.10
2023-07-27T16:13:02.212Z,18.90
2023-07-27T16:15:29.799Z,18.90
2023-07-27T16:17:57.443Z,18.90
2023-07-27T16:20:24.855Z,18.80
2023-07-27T16:22:52.991Z,18.90
2023-07-27T16:25:23.396Z,19.00
2023-07-27T16:27:50.773Z,19.00
2023-07-27T16:30:19.244Z,18.90
2023-07-27T16:32:46.665Z,18.90
2023-07-27T16:35:13.937Z,18.80
2023-07-27T16:37:41.107Z,18.80
2023-07-27T16:40:08.991Z,18.70
2023-07-27T16:42:36.129Z,18.60
2023-07-27T16:45:03.600Z,18.50
2023-07-27T16:47:31.858Z,18.40
2023-07-27T16:49:59.122Z,18.50
2023-07-27T16:52:26.188Z,18.40
2023-07-27T16:54:53.379Z,18.40
2023-07-27T16:57:20.472Z,18.50
2023-07-27T16:59:47.600Z,18.40
2023-07-27T17:02:15.979Z,18.20
2023-07-27T17:04:43.345Z,18.20
2023-07-27T17:07:10.533Z,18.20
2023-07-27T17:09:38.298Z,18.10
2023-07-27T17:12:09.947Z,18.10
2023-07-27T17:14:37.849Z,18.20
2023-07-27T17:17:05.440Z,18.20
2023-07-27T17:19:32.683Z,18.20
2023-07-27T17:21:59.777Z,18.30
2023-07-27T17:24:26.983Z,18.30
2023-07-27T17:26:54.099Z,18.20
2023-07-27T17:29:21.200Z,18.10
2023-07-27T17:31:48.349Z,18.10
2023-07-27T17:34:15.669Z,18.00
2023-07-27T17:36:42.755Z,18.00
2023-07-27T17:39:09.869Z,18.00
2023-07-27T17:41:37.230Z,18.10
2023-07-27T17:44:05.117Z,18.10
2023-07-27T17:46:34.798Z,18.10
2023-07-27T17:49:02.130Z,17.90
2023-07-27T17:51:29.465Z,17.80
2023-07-27T17:53:56.508Z,17.80
2023-07-27T17:56:23.775Z,17.80
2023-07-27T17:58:51.064Z,17.60
2023-07-27T18:01:18.167Z,17.60
2023-07-27T18:03:45.467Z,17.60
2023-07-27T18:06:12.761Z,17.60
2023-07-27T18:08:40.305Z,17.60
2023-07-27T18:11:13.284Z,17.60
2023-07-27T18:13:42.235Z,17.60
2023-07-27T18:16:12.173Z,17.60
2023-07-27T18:18:39.807Z,17.50
2023-07-27T18:21:16.232Z,17.50
2023-07-27T18:23:44.725Z,17.50
2023-07-27T18:26:20.090Z,17.50
2023-07-27T18:28:49.529Z,17.50
2023-07-27T18:31:18.058Z,17.50
2023-07-27T18:33:45.480Z,17.50
2023-07-27T18:36:16.207Z,17.40
2023-07-27T18:38:46.291Z,17.50
2023-07-27T18:41:15.588Z,17.30
2023-07-27T18:43:43.263Z,17.30
2023-07-27T18:46:10.955Z,17.30
2023-07-27T18:48:38.225Z,17.40
2023-07-27T18:51:05.413Z,17.30
2023-07-27T18:53:32.697Z,17.30
2023-07-27T18:55:59.829Z,17.40
2023-07-27T18:58:26.931Z,17.40
2023-07-27T19:00:54.586Z,17.40
2023-07-27T19:03:24.412Z,17.40
2023-07-27T19:05:52.383Z,17.40
2023-07-27T19:08:21.498Z,17.40
2023-07-27T19:10:48.777Z,17.40
2023-07-27T19:13:15.989Z,17.50
2023-07-27T19:15:50.578Z,17.40
2023-07-27T19:18:19.301Z,17.50
2023-07-27T19:20:46.566Z,17.50
2023-07-27T19:23:13.705Z,17.50
2023-07-27T19:25:46.026Z,17.50
2023-07-27T19:28:13.567Z,17.40
2023-07-27T19:30:45.023Z,17.40
2023-07-27T19:33:14.435Z,17.50
2023-07-27T19:35:42.991Z,17.50
2023-07-27T19:38:11.326Z,17.50
2023-07-27T19:40:38.588Z,17.50
2023-07-27T19:43:06.018Z,17.50
2023-07-27T19:45:33.156Z,17.40
2023-07-27T19:48:00.456Z,17.50
2023-07-27T19:50:27.856Z,17.40
2023-07-27T19:52:55.147Z,17.40
2023-07-27T19:55:24.220Z,17.40
2023-07-27T19:57:51.649Z,17.40
2023-07-27T20:00:19.336Z,17.40
2023-07-27T20:02:49.368Z,17.40
2023-07-27T20:05:16.896Z,17.40
2023-07-27T20:07:43.984Z,17.40
2023-07-27T20:10:11.391Z,17.40
2023-07-27T20:12:38.504Z,17.40
2023-07-27T20:15:06.310Z,17.40
2023-07-27T20:17:33.399Z,17.40
2023-07-27T20:20:00.951Z,17.50
2023-07-27T20:22:28.138Z,17.40
2023-07-27T20:24:55.232Z,17.40
2023-07-27T20:27:22.350Z,17.50
2023-07-27T20:29:49.415Z,17.50
2023-07-27T20:32:16.576Z,17.50
2023-07-27T20:34:43.868Z,17.50
2023-07-27T20:37:10.981Z,17.50
2023-07-27T20:39:38.379Z,17.50
2023-07-27T20:42:05.861Z,17.50
2023-07-27T20:44:32.968Z,17.60
2023-07-27T20:47:00.043Z,17.60
2023-07-27T20:49:29.104Z,17.60
2023-07-27T20:51:56.194Z,17.60
2023-07-27T20:54:23.303Z,17.60
2023-07-27T20:56:50.471Z,17.60
2023-07-27T20:59:17.516Z,17.70
2023-07-27T21:01:44.617Z,17.70
2023-07-27T21:04:11.931Z,17.70
2023-07-27T21:06:41.260Z,17.80
2023-07-27T21:09:08.437Z,17.80
2023-07-27T21:11:35.659Z,17.80
2023-07-27T21:14:02.757Z,17.90
2023-07-27T21:16:33.064Z,17.90
2023-07-27T21:19:00.604Z,18.00
2023-07-27T21:21:32.306Z,17.90
2023-07-27T21:23:59.872Z,18.00
2023-07-27T21:26:27.101Z,18.00
2023-07-27T21:28:54.164Z,18.00
2023-07-27T21:31:21.315Z,18.00
2023-07-27T21:33:48.473Z,18.00
2023-07-27T21:36:16.057Z,18.10
2023-07-27T21:38:43.223Z,18.00
2023-07-27T21:41:10.804Z,17.90
2023-07-27T21:43:39.235Z,18.00
2023-07-27T21:46:06.602Z,17.60
2023-07-27T21:48:33.813Z,17.30
2023-07-27T21:51:01.035Z,17.10
2023-07-27T21:53:28.100Z,17.10
2023-07-27T21:55:55.192Z,17.00
2023-07-27T21:58:22.456Z,17.10
2023-07-27T22:00:49.531Z,17.00
2023-07-27T22:03:16.660Z,17.00
2023-07-27T22:05:45.705Z,17.00
2023-07-27T22:08:12.899Z,17.00
2023-07-27T22:10:41.233Z,17.10
2023-07-27T22:13:08.302Z,17.10
2023-07-27T22:15:35.371Z,17.10
2023-07-27T22:18:02.664Z,17.10
2023-07-27T22:20:29.825Z,17.20
2023-07-27T22:22:56.880Z,17.20
2023-07-27T22:25:24.021Z,17.20
2023-07-27T22:27:51.148Z,17.20
2023-07-27T22:30:18.486Z,17.30
2023-07-27T22:32:45.582Z,17.30
2023-07-27T22:35:12.873Z,17.30
2023-07-27T22:37:40.194Z,17.30
2023-07-27T22:40:08.520Z,17.30
2023-07-27T22:42:35.831Z,17.30
2023-07-27T22:45:03.968Z,17.30
2023-07-27T22:47:31.078Z,17.30
2023-07-27T22:49:58.221Z,17.30
2023-07-27T22:52:25.296Z,17.30
2023-07-27T22:54:52.597Z,17.30
2023-07-27T22:57:20.956Z,17.30
2023-07-27T22:59:49.921Z,17.30
2023-07-27T23:02:18.181Z,17.30
2023-07-27T23:04:45.352Z,17.40
2023-07-27T23:07:12.470Z,17.40
2023-07-27T23:09:39.551Z,17.40
2023-07-27T23:12:07.813Z,17.40
2023-07-27T23:14:34.955Z,17.50
2023-07-27T23:17:02.169Z,17.50
2023-07-27T23:19:29.261Z,17.50
2023-07-27T23:21:56.336Z,17.60
2023-07-27T23:24:23.583Z,17.60
2023-07-27T23:26:50.671Z,17.60
2023-07-27T23:29:17.775Z,17.70
2023-07-27T23:31:44.819Z,17.70
2023-07-27T23:34:11.975Z,17.70
2023-07-27T23:36:39.117Z,17.70
2023-07-27T23:39:06.154Z,17.80
2023-07-27T23:41:33.635Z,17.80
2023-07-27T23:44:00.691Z,17.80
2023-07-27T23:46:28.102Z,17.90
2023-07-27T23:48:55.147Z,17.90
2023-07-27T23:51:22.273Z,17.90
2023-07-27T23:53:49.369Z,18.00
2023-07-27T23:56:17.333Z,18.10
2023-07-27T23:58:44.397Z,18.10
